West Santa Ysabel (222, 637) Station Data

Red Flag Warning: No
Fire Weather Zone: 258
SDGE Region: Ramona
Lat/Lon: 33.087/-116.69

Observations

Time Wind Speed/Gust Temp(F) RH Fuel Moist Fuel Temp(F) Dewpt(F) Tmax(F) Tmin(F) Accum Precip 10-min Precip SL Press(mb)
6/22 5:00am 179 3 G 3 82° 11% - - 23° 82.4° 78.7° - - 864.0
6/22 4:50am 183 2 G 3 82° 12% - - 25° 82.4° 78.7° - - 864.0
6/22 4:40am 171 2 G 3 82° 12% - - 24° 82.4° 78.7° - - 864.0
6/22 4:30am 151 2 G 3 82° 12% - - 24° 82.4° 78.7° - - 864.0
6/22 4:20am 155 2 G 3 82° 12% - - 25° 82.4° 78.7° - - 864.0
6/22 4:10am 153 2 G 3 81° 13% - - 26° 82.2° 78.7° - - 864.0
6/22 4:00am 99 3 G 4 80° 14% - - 27° 82.2° 78.7° - - 865.0
6/22 3:50am 77 4 G 4 79° 14% - - 27° 82.2° 78.7° - - 865.0
6/22 3:40am 92 3 G 4 80° 16% - - 30° 82.2° 78.7° - - 865.0
6/22 3:30am 118 1 G 2 80° 18% - - 32° 82.2° 78.7° - - 866.0
6/22 3:20am 82 3 G 4 79° 18% - - 33° 82.2° 78.7° - - 866.0
6/22 3:10am 118 2 G 2 81° 18% - - 34° 82.2° 79.6° - - 866.0
6/22 3:00am 128 2 G 2 81° 18% - - 33° 82.2° 79.6° - - 866.0
6/22 2:50am 132 2 G 2 80° 19% - - 34° 82.2° 79.6° - - 867.0
6/22 2:40am 116 2 G 2 80° 20% - - 36° 82.2° 79.6° - - 867.0
6/22 2:30am 164 1 G 2 80° 23% - - 39° 82.2° 79.8° - - 868.0
6/22 2:20am 182 1 G 2 81° 22% - - 38° 82.2° 79.9° - - 868.0
6/22 2:10am 172 2 G 2 81° 21% - - 38° 82.2° 79.9° - - 868.0
6/22 2:00am 183 2 G 2 81° 23% - - 40° 82.2° 79.9° - - 868.0
6/22 1:50am 198 2 G 2 80° 25% - - 41° 82.2° 79.9° - - 869.0
6/22 1:40am 190 2 G 2 82° 23% - - 40° 82.2° 80.7° - - 868.0
6/22 1:30am 175 2 G 2 82° 22% - - 39° 82.2° 81° - - 868.0
6/22 1:20am 175 2 G 2 82° 23% - - 41° 82.2° 81° - - 869.0
6/22 1:10am 177 1 G 1 81° 22% - - 38° 82.2° 81° - - 868.0
6/22 1:00am 95 0 G 1 82° 19% - - 35° 82.2° 81° - - 867.0
6/22 12:50am 86 2 G 3 82° 16% - - 32° 82.2° 81° - - 866.0
6/22 12:40am 73 1 G 1 82° 17% - - 32° 82.2° 81.2° - - 866.0
6/22 12:30am 84 0 G 1 82° 18% - - 34° 82.2° 81.2° - - 867.0
6/22 12:20am 57 0 G 1 81° 20% - - 36° 82.2° 81.2° - - 867.0
6/22 12:10am 72 1 G 1 82° 19% - - 36° 82.2° 81.4° - - 867.0
6/22 12:00am 96 0 G 1 82° 19% - - 36° 96.4° 78.9° - - 867.0
6/21 11:50pm 96 0 G 1 82° 19% - - 36° 96.4° 78.9° - - 867.0
6/21 11:40pm 0 0 G 0 82° 19% - - 36° 96.4° 78.9° - - 867.0
6/21 11:30pm 104 0 G 1 83° 20% - - 37° 96.4° 78.9° - - 867.0
6/21 11:20pm 87 1 G 1 83° 20% - - 38° 96.4° 78.9° - - 868.0
6/21 11:10pm 84 1 G 2 83° 22% - - 39° 96.4° 78.9° - - 868.0
6/21 11:00pm 85 1 G 2 82° 24% - - 41° 96.4° 78.9° - - 869.0
6/21 10:50pm 93 2 G 3 81° 26% - - 44° 96.4° 78.9° - - 870.0
6/21 10:40pm 87 2 G 3 81° 28% - - 45° 96.4° 78.9° - - 871.0
6/21 10:30pm 85 2 G 3 81° 29% - - 46° 96.4° 78.9° - - 871.0
6/21 10:20pm 70 2 G 3 82° 29% - - 46° 96.4° 78.9° - - 871.0
6/21 10:10pm 46 1 G 2 82° 28% - - 45° 96.4° 78.9° - - 871.0
6/21 10:00pm 58 2 G 2 82° 31% - - 48° 96.4° 78.9° - - 872.0
6/21 9:50pm 73 3 G 3 81° 31% - - 48° 96.4° 78.9° - - 872.0
6/21 9:40pm 83 4 G 5 80° 32% - - 47° 96.4° 78.9° - - 872.0
6/21 9:30pm 69 4 G 5 81° 31% - - 47° 96.4° 79.6° - - 872.0
6/21 9:20pm 79 3 G 3 81° 31% - - 48° 96.4° 79.6° - - 872.0
6/21 9:10pm 85 3 G 4 81° 33% - - 49° 96.4° 79.6° - - 873.0
6/21 9:00pm 82 4 G 4 80° 34% - - 49° 96.4° 79.6° - - 873.0
6/21 8:50pm 70 5 G 5 80° 34% - - 49° 96.4° 79.6° - - 873.0
6/21 8:40pm 63 3 G 4 81° 33% - - 49° 96.4° 80.6° - - 873.0
6/21 8:30pm 64 3 G 3 81° 33% - - 49° 96.4° 80.6° - - 873.0
6/21 8:20pm 66 1 G 2 81° 33% - - 49° 96.4° 80.6° - - 873.0
6/21 8:10pm 309 0 G 1 82° 32% - - 49° 96.4° 80.6° - - 872.0
6/21 8:00pm 309 1 G 1 83° 31% - - 49° 96.4° 80.6° - - 872.0
6/21 7:50pm 280 1 G 3 82° 31% - - 49° 96.4° 80.6° - - 872.0
6/21 7:40pm 266 2 G 4 83° 30% - - 48° 96.4° 80.6° - - 872.0
6/21 7:30pm 269 3 G 5 84° 28% - - 47° 96.4° 80.6° - - 872.0
6/21 7:20pm 258 3 G 5 85° 26% - - 46° 96.4° 80.6° - - 871.0
6/21 7:10pm 263 3 G 6 86° 24% - - 45° 96.4° 80.6° - - 871.0
6/21 7:00pm 268 3 G 5 87° 23% - - 44° 96.4° 80.6° - - 870.0
6/21 6:50pm 260 3 G 5 87° 21% - - 42° 96.4° 80.6° - - 870.0
6/21 6:40pm 249 2 G 6 87° 19% - - 39° 96.4° 80.6° - - 869.0
6/21 6:30pm 279 4 G 7 87° 18% - - 39° 96.4° 80.6° - - 869.0
6/21 6:20pm 267 5 G 8 87° 19% - - 40° 96.4° 80.6° - - 869.0
6/21 6:10pm 284 5 G 9 87° 23% - - 45° 96.4° 80.6° - - 871.0
6/21 6:00pm 261 4 G 7 88° 26% - - 48° 96.4° 80.6° - - 872.0
6/21 5:50pm 250 4 G 10 87° 27% - - 49° 96.4° 80.6° - - 872.0
6/21 5:40pm 257 6 G 10 88° 27% - - 50° 96.4° 80.6° - - 873.0
6/21 5:30pm 262 6 G 11 89° 26% - - 49° 96.4° 80.6° - - 872.0
6/21 5:20pm 262 6 G 12 90° 24% - - 48° 96.4° 80.6° - - 872.0
6/21 5:10pm 259 5 G 9 90° 23% - - 47° 96.4° 80.6° - - 872.0
6/21 5:00pm 255 4 G 10 90° 22% - - 47° 96.4° 80.6° - - 872.0
6/21 4:50pm 266 6 G 11 90° 23% - - 47° 96.4° 80.6° - - 872.0
6/21 4:40pm 260 6 G 11 91° 22% - - 47° 96.4° 80.6° - - 872.0
6/21 4:30pm 265 6 G 11 92° 20% - - 45° 96.4° 80.6° - - 871.0
6/21 4:20pm 251 5 G 10 92° 19% - - 45° 96.4° 80.6° - - 871.0
6/21 4:10pm 250 5 G 9 92° 19% - - 44° 96.4° 80.6° - - 871.0
6/21 4:00pm 254 6 G 12 93° 18% - - 43° 96.4° 80.6° - - 871.0
6/21 3:50pm 254 6 G 11 93° 18% - - 43° 96.4° 80.6° - - 871.0
6/21 3:40pm 244 5 G 12 93° 18% - - 43° 96.4° 80.6° - - 871.0
6/21 3:30pm 250 6 G 11 93° 17% - - 42° 96.4° 80.6° - - 871.0
6/21 3:20pm 251 5 G 10 93° 17% - - 42° 96.4° 80.6° - - 871.0
6/21 3:10pm 248 6 G 12 93° 19% - - 45° 96.4° 80.6° - - 871.0
6/21 3:00pm 260 7 G 13 93° 20% - - 46° 96.4° 80.6° - - 872.0
6/21 2:50pm 251 5 G 13 93° 18% - - 44° 96.4° 80.6° - - 871.0
6/21 2:40pm 258 8 G 17 94° 20% - - 46° 96.4° 80.6° - - 872.0
6/21 2:30pm 263 8 G 14 94° 18% - - 44° 96.4° 80.6° - - 871.0
6/21 2:20pm 258 7 G 12 94° 17% - - 42° 96.4° 80.6° - - 871.0
6/21 2:10pm 254 6 G 13 95° 15% - - 39° 96.4° 80.6° - - 870.0
6/21 2:00pm 247 6 G 12 95° 12% - - 35° 96.4° 80.6° - - 870.0
6/21 1:50pm 266 8 G 14 95° 12% - - 35° 96.4° 80.6° - - 870.0
6/21 1:40pm 258 7 G 12 95° 11% - - 33° 96.4° 80.6° - - 869.0
6/21 1:30pm 253 6 G 12 95° 12% - - 36° 96.4° 80.6° - - 870.0
6/21 1:20pm 268 8 G 14 94° 13% - - 35° 95.9° 80.6° - - 870.0
6/21 1:10pm 259 7 G 16 95° 12% - - 34° 95.9° 80.6° - - 870.0
6/21 1:00pm 270 8 G 14 95° 12% - - 34° 95.9° 80.6° - - 870.0
6/21 12:50pm 276 8 G 15 95° 13% - - 36° 95.9° 80.6° - - 870.0
6/21 12:40pm 269 8 G 15 95° 9% - - 26° 95.9° 80.6° - - 869.0
6/21 12:30pm 275 8 G 14 95° 8% - - 26° 95.9° 80.6° - - 869.0
6/21 12:20pm 262 5 G 13 95° 8% - - 26° 95.9° 80.6° - - 869.0
6/21 12:10pm 267 5 G 11 95° 8% - - 25° 95.5° 80.6° - - 869.0
6/21 12:00pm 259 6 G 13 95° 9% - - 28° 95.5° 80.6° - - 869.0
6/21 11:50am 257 6 G 11 95° 9% - - 27° 95.5° 80.6° - - 869.0
6/21 11:40am 274 4 G 10 94° 10% - - 29° 95.3° 80.6° - - 869.0
6/21 11:30am 281 5 G 10 94° 11% - - 32° 95.3° 80.6° - - 869.0
6/21 11:20am 247 4 G 9 94° 12% - - 33° 95.3° 80.6° - - 869.0
6/21 11:10am 254 4 G 8 94° 11% - - 32° 95.3° 80.6° - - 869.0
6/21 11:00am 208 3 G 8 95° 11% - - 32° 95.3° 80.6° - - 869.0
6/21 10:50am 201 3 G 7 94° 11% - - 32° 94.6° 80.6° - - 869.0
6/21 10:40am 198 2 G 7 93° 11% - - 30° 93.9° 80.6° - - 869.0
6/21 10:30am 185 4 G 8 93° 12% - - 32° 93.3° 80.6° - - 869.0
6/21 10:20am 226 3 G 9 92° 12% - - 32° 93.3° 80.6° - - 869.0
6/21 10:10am 256 3 G 6 92° 11% - - 30° 93.3° 80.6° - - 869.0
6/21 10:00am 211 2 G 6 93° 10% - - 29° 93.3° 80.6° - - 868.0
6/21 9:50am 222 3 G 5 92° 10% - - 28° 92.6° 80.6° - - 868.0
6/21 9:40am 242 2 G 6 91° 11% - - 28° 91.9° 80.6° - - 868.0
6/21 9:30am 266 2 G 4 91° 11% - - 29° 91.5° 80.6° - - 868.0
6/21 9:20am 282 2 G 5 90° 12% - - 30° 91.5° 80.6° - - 868.0
6/21 9:10am 250 2 G 4 91° 11% - - 30° 91.5° 80.6° - - 868.0
6/21 9:00am 252 2 G 4 90° 11% - - 28° 91.5° 80.6° - - 867.0
6/21 8:50am 203 2 G 4 91° 11% - - 29° 91.5° 80.6° - - 867.0
6/21 8:40am 202 1 G 4 91° 12% - - 32° 91.5° 80.6° - - 868.0
6/21 8:30am 104 1 G 2 90° 12% - - 31° 90.7° 80.6° - - 867.0
6/21 8:20am 134 1 G 3 89° 13% - - 31° 89.9° 80.6° - - 867.0
6/21 8:10am 144 2 G 3 88° 14% - - 32° 88.7° 80.6° - - 867.0
6/21 8:00am 163 2 G 3 87° 14% - - 33° 87.5° 80.6° - - 867.0
6/21 7:50am 154 2 G 3 87° 13% - - 30° 87.5° 80.6° - - 866.0
6/21 7:40am 164 1 G 2 87° 12% - - 28° 87.2° 80.6° - - 866.0
6/21 7:30am 176 2 G 2 86° 11% - - 25° 87° 80.6° - - 865.0
6/21 7:20am 166 2 G 3 86° 11% - - 26° 87° 80.6° - - 865.0
6/21 7:10am 155 2 G 4 86° 10% - - 24° 87° 80.6° - - 865.0
6/21 7:00am 162 2 G 4 87° 10% - - 23° 87° 80.6° - - 865.0
6/21 6:50am 154 1 G 2 87° 10% - - 23° 87° 80.6° - - 864.0
6/21 6:40am 139 1 G 1 87° 10% - - 23° 86.9° 80.6° - - 864.0
6/21 6:30am 136 1 G 2 86° 10% - - 23° 86.3° 80.6° - - 864.0
6/21 6:20am 124 2 G 3 84° 11% - - 25° 85.2° 80.6° - - 865.0
6/21 6:10am 110 3 G 3 84° 12% - - 26° 84.8° 80.6° - - 865.0
6/21 6:00am 118 3 G 3 85° 11% - - 25° 84.8° 80.6° - - 865.0
6/21 5:50am 122 3 G 3 84° 12% - - 26° 84.6° 80.6° - - 865.0
6/21 5:40am 101 2 G 2 84° 12% - - 26° 84.6° 80.6° - - 865.0
6/21 5:30am 98 1 G 2 84° 13% - - 28° 84.3° 80.6° - - 865.0
6/21 5:20am 99 2 G 3 83° 16% - - 32° 84° 80.6° - - 866.0
6/21 5:10am 87 2 G 3 84° 17% - - 34° 84° 80.6° - - 866.0
6/21 5:00am 60 2 G 3 83° 16% - - 32° 84° 80.6° - - 866.0
6/21 4:50am 36 2 G 3 83° 15% - - 31° 84° 80.6° - - 866.0
6/21 4:40am 33 2 G 3 83° 15% - - 30° 84° 80.6° - - 866.0
6/21 4:30am 43 1 G 3 83° 16% - - 32° 84° 80.6° - - 866.0
6/21 4:20am 90 2 G 3 83° 19% - - 37° 84° 80.6° - - 867.0
6/21 4:10am 84 2 G 3 84° 18% - - 36° 84° 80.6° - - 867.0
6/21 4:00am 82 2 G 3 83° 20% - - 37° 83.5° 80.6° - - 867.0
6/21 3:50am 82 3 G 4 83° 21% - - 39° 83.3° 80.6° - - 868.0
6/21 3:40am 68 3 G 3 83° 23% - - 41° 83.1° 80.6° - - 869.0
6/21 3:30am 54 3 G 4 83° 23% - - 41° 83.1° 80.6° - - 869.0
6/21 3:20am 59 3 G 3 82° 23% - - 41° 83.1° 80.6° - - 869.0
6/21 3:10am 63 3 G 4 82° 24% - - 42° 83.1° 80.6° - - 869.0
6/21 3:00am 72 3 G 4 82° 23% - - 41° 83.1° 80.6° - - 869.0
6/21 2:50am 73 3 G 4 82° 24% - - 41° 83.1° 80.6° - - 869.0
6/21 2:40am 55 3 G 4 82° 24% - - 42° 82.9° 80.6° - - 869.0
6/21 2:30am 79 3 G 4 82° 24% - - 41° 82.9° 80.6° - - 869.0
6/21 2:20am 64 3 G 3 83° 23% - - 41° 82.9° 80.6° - - 869.0
6/21 2:10am 67 3 G 4 82° 23% - - 41° 82.7° 80.6° - - 869.0
6/21 2:00am 66 3 G 4 82° 24% - - 41° 82.7° 80.6° - - 869.0
6/21 1:50am 42 2 G 3 82° 25% - - 42° 82.7° 80.6° - - 869.0
6/21 1:40am 47 2 G 4 82° 25% - - 43° 82.7° 80.6° - - 869.0
6/21 1:30am 66 3 G 4 81° 26% - - 43° 82.7° 80.6° - - 869.0
6/21 1:20am 56 3 G 4 83° 25% - - 43° 82.7° 81.8° - - 870.0
6/21 1:10am 62 3 G 3 82° 26% - - 44° 82.7° 81.8° - - 870.0
6/21 1:00am 73 3 G 3 82° 26% - - 44° 82.7° 81.8° - - 870.0
6/21 12:50am 86 2 G 3 82° 26% - - 44° 82.7° 81.8° - - 870.0
6/21 12:40am 77 3 G 4 82° 26% - - 44° 82.7° 81.8° - - 870.0
6/21 12:30am 80 4 G 4 82° 26% - - 44° 82.7° 81.8° - - 870.0
6/21 12:20am 71 4 G 4 82° 26% - - 44° 82.7° 81.8° - - 870.0
6/21 12:10am 80 3 G 4 82° 26% - - 44° 82.7° 82.1° - - 870.0
6/21 12:00am 77 3 G 4 82° 26% - - 45° 97.4° 78.2° - - 870.0
6/20 11:50pm 85 1 G 2 82° 27% - - 45° 97.4° 78.2° - - 870.0
6/20 11:40pm 82 1 G 3 82° 28% - - 45° 97.4° 78.2° - - 870.0
6/20 11:30pm 78 2 G 4 82° 28% - - 46° 97.4° 78.2° - - 871.0
6/20 11:20pm 104 2 G 2 82° 29% - - 46° 97.4° 78.2° - - 871.0
6/20 11:10pm 95 2 G 3 82° 29% - - 47° 97.4° 78.2° - - 871.0
6/20 11:00pm 108 2 G 3 82° 30% - - 47° 97.4° 78.2° - - 871.0
6/20 10:50pm 189 2 G 3 82° 29% - - 47° 97.4° 78.2° - - 871.0
6/20 10:40pm 202 2 G 3 82° 29% - - 47° 97.4° 78.2° - - 871.0
6/20 10:30pm 178 2 G 3 82° 29% - - 47° 97.4° 78.2° - - 871.0
6/20 10:20pm 98 1 G 2 81° 32% - - 48° 97.4° 78.2° - - 872.0
6/20 10:10pm 86 2 G 3 81° 33% - - 49° 97.4° 78.2° - - 872.0
6/20 10:00pm 109 2 G 3 82° 31% - - 48° 97.4° 78.2° - - 872.0
6/20 9:50pm 136 2 G 3 82° 31% - - 48° 97.4° 78.2° - - 872.0
6/20 9:40pm 129 2 G 2 82° 31% - - 48° 97.4° 78.2° - - 872.0
6/20 9:30pm 111 2 G 2 82° 31% - - 48° 97.4° 78.2° - - 872.0
6/20 9:20pm 102 2 G 3 81° 32% - - 48° 97.4° 78.2° - - 872.0
6/20 9:10pm 113 2 G 3 82° 32% - - 49° 97.4° 78.2° - - 872.0
6/20 9:00pm 122 2 G 3 82° 32% - - 49° 97.4° 78.2° - - 872.0
6/20 8:50pm 139 1 G 2 82° 32% - - 49° 97.4° 78.2° - - 872.0
6/20 8:40pm 142 2 G 2 82° 33% - - 50° 97.4° 78.2° - - 873.0
6/20 8:30pm 138 1 G 2 82° 33% - - 50° 97.4° 78.2° - - 873.0
6/20 8:20pm 169 2 G 2 82° 33% - - 50° 97.4° 78.2° - - 873.0
6/20 8:10pm 194 2 G 3 83° 33% - - 51° 97.4° 78.2° - - 873.0
6/20 8:00pm 237 1 G 2 84° 32% - - 51° 97.4° 78.2° - - 873.0
6/20 7:50pm 246 1 G 3 84° 31% - - 50° 97.4° 78.2° - - 873.0
6/20 7:40pm 256 2 G 5 85° 30% - - 50° 97.4° 78.2° - - 873.0
6/20 7:30pm 241 2 G 5 85° 29% - - 50° 97.4° 78.2° - - 873.0
6/20 7:20pm 259 4 G 6 86° 29% - - 50° 97.4° 78.2° - - 873.0
6/20 7:10pm 271 6 G 8 86° 29% - - 50° 97.4° 78.2° - - 873.0
6/20 7:00pm 271 5 G 8 87° 28% - - 50° 97.4° 78.2° - - 873.0
6/20 6:50pm 269 6 G 9 87° 28% - - 50° 97.4° 78.2° - - 873.0
6/20 6:40pm 272 6 G 9 88° 28% - - 51° 97.4° 78.2° - - 873.0
6/20 6:30pm 281 5 G 8 88° 28% - - 51° 97.4° 78.2° - - 873.0
6/20 6:20pm 281 6 G 10 89° 27% - - 51° 97.4° 78.2° - - 873.0
6/20 6:10pm 274 6 G 10 89° 27% - - 51° 97.4° 78.2° - - 873.0
6/20 6:00pm 275 6 G 11 90° 27% - - 51° 97.4° 78.2° - - 873.0